sensor_id;sensor_type;location;lat;lon;timestamp;pressure;altitude;pressure_sealevel;temperature;humidity
55289;BME280;41154;45.394;5.734;2023-04-24T00:01:00;96503.72;;;9.76;100.00
55289;BME280;41154;45.394;5.734;2023-04-24T00:03:26;96503.63;;;9.60;100.00
55289;BME280;41154;45.394;5.734;2023-04-24T00:05:54;96514.34;;;9.65;100.00
55289;BME280;41154;45.394;5.734;2023-04-24T00:08:19;96515.47;;;9.69;100.00
55289;BME280;41154;45.394;5.734;2023-04-24T00:10:45;96512.81;;;9.75;100.00
55289;BME280;41154;45.394;5.734;2023-04-24T00:13:11;96508.31;;;9.80;100.00
55289;BME280;41154;45.394;5.734;2023-04-24T00:15:36;96510.16;;;9.80;100.00
55289;BME280;41154;45.394;5.734;2023-04-24T00:18:02;96510.63;;;10.04;100.00
55289;BME280;41154;45.394;5.734;2023-04-24T00:20:28;96510.63;;;10.09;100.00
55289;BME280;41154;45.394;5.734;2023-04-24T00:23:01;96518.00;;;9.86;100.00
55289;BME280;41154;45.394;5.734;2023-04-24T00:25:26;96519.28;;;9.79;100.00
55289;BME280;41154;45.394;5.734;2023-04-24T00:27:52;96513.38;;;9.77;100.00
55289;BME280;41154;45.394;5.734;2023-04-24T00:30:18;96519.75;;;9.70;100.00
55289;BME280;41154;45.394;5.734;2023-04-24T00:32:43;96527.25;;;9.74;100.00
55289;BME280;41154;45.394;5.734;2023-04-24T00:35:09;96530.19;;;9.72;100.00
55289;BME280;41154;45.394;5.734;2023-04-24T00:37:35;96537.16;;;9.68;100.00
55289;BME280;41154;45.394;5.734;2023-04-24T00:40:01;96532.06;;;9.66;100.00
55289;BME280;41154;45.394;5.734;2023-04-24T00:42:28;96528.72;;;9.86;100.00
55289;BME280;41154;45.394;5.734;2023-04-24T00:44:56;96527.31;;;9.79;100.00
55289;BME280;41154;45.394;5.734;2023-04-24T00:47:22;96529.06;;;9.63;100.00
55289;BME280;41154;45.394;5.734;2023-04-24T00:49:48;96532.59;;;9.68;100.00
55289;BME280;41154;45.394;5.734;2023-04-24T00:52:14;96530.66;;;9.59;100.00
55289;BME280;41154;45.394;5.734;2023-04-24T00:54:44;96533.78;;;9.50;100.00
55289;BME280;41154;45.394;5.734;2023-04-24T00:57:10;96532.72;;;9.51;100.00
55289;BME280;41154;45.394;5.734;2023-04-24T00:59:36;96532.47;;;9.53;100.00
55289;BME280;41154;45.394;5.734;2023-04-24T01:02:02;96534.16;;;9.64;100.00
55289;BME280;41154;45.394;5.734;2023-04-24T01:04:28;96546.97;;;9.57;100.00
55289;BME280;41154;45.394;5.734;2023-04-24T01:06:55;96532.38;;;9.43;100.00
55289;BME280;41154;45.394;5.734;2023-04-24T01:09:25;96542.06;;;9.49;100.00
55289;BME280;41154;45.394;5.734;2023-04-24T01:11:51;96534.13;;;9.59;100.00
55289;BME280;41154;45.394;5.734;2023-04-24T01:14:17;96531.66;;;9.52;100.00
55289;BME280;41154;45.394;5.734;2023-04-24T01:16:43;96539.03;;;9.40;100.00
55289;BME280;41154;45.394;5.734;2023-04-24T01:19:10;96533.41;;;9.37;100.00
55289;BME280;41154;45.394;5.734;2023-04-24T01:21:37;96543.09;;;9.43;100.00
55289;BME280;41154;45.394;5.734;2023-04-24T01:24:05;96535.81;;;9.38;100.00
55289;BME280;41154;45.394;5.734;2023-04-24T01:26:31;96534.19;;;9.37;100.00
55289;BME280;41154;45.394;5.734;2023-04-24T01:28:57;96525.13;;;9.38;100.00
55289;BME280;41154;45.394;5.734;2023-04-24T01:31:22;96524.66;;;9.46;100.00
55289;BME280;41154;45.394;5.734;2023-04-24T01:33:49;96525.41;;;9.42;100.00
55289;BME280;41154;45.394;5.734;2023-04-24T01:36:16;96526.22;;;9.42;100.00
55289;BME280;41154;45.394;5.734;2023-04-24T01:38:43;96514.50;;;9.53;100.00
55289;BME280;41154;45.394;5.734;2023-04-24T01:41:09;96512.78;;;9.69;100.00
55289;BME280;41154;45.394;5.734;2023-04-24T01:43:35;96506.41;;;9.43;100.00
55289;BME280;41154;45.394;5.734;2023-04-24T01:46:01;96505.22;;;9.29;100.00
55289;BME280;41154;45.394;5.734;2023-04-24T01:48:27;96496.69;;;9.32;100.00
55289;BME280;41154;45.394;5.734;2023-04-24T01:50:53;96495.88;;;9.31;100.00
55289;BME280;41154;45.394;5.734;2023-04-24T01:53:19;96492.13;;;9.32;100.00
55289;BME280;41154;45.394;5.734;2023-04-24T01:55:45;96496.88;;;9.25;100.00
55289;BME280;41154;45.394;5.734;2023-04-24T01:58:12;96496.84;;;9.20;100.00
55289;BME280;41154;45.394;5.734;2023-04-24T02:00:38;96503.25;;;9.19;100.00
55289;BME280;41154;45.394;5.734;2023-04-24T02:03:03;96504.63;;;9.22;100.00
55289;BME280;41154;45.394;5.734;2023-04-24T02:05:29;96494.16;;;9.20;100.00
55289;BME280;41154;45.394;5.734;2023-04-24T02:07:55;96507.03;;;9.23;100.00
55289;BME280;41154;45.394;5.734;2023-04-24T02:10:21;96497.63;;;9.48;100.00
55289;BME280;41154;45.394;5.734;2023-04-24T02:12:46;96501.56;;;9.40;100.00
55289;BME280;41154;45.394;5.734;2023-04-24T02:15:12;96505.47;;;9.27;100.00
55289;BME280;41154;45.394;5.734;2023-04-24T02:17:38;96508.66;;;9.24;100.00
55289;BME280;41154;45.394;5.734;2023-04-24T02:20:07;96515.03;;;9.18;100.00
55289;BME280;41154;45.394;5.734;2023-04-24T02:22:33;96516.38;;;9.21;100.00
55289;BME280;41154;45.394;5.734;2023-04-24T02:25:01;96515.31;;;9.22;100.00
55289;BME280;41154;45.394;5.734;2023-04-24T02:27:27;96512.91;;;9.20;100.00
55289;BME280;41154;45.394;5.734;2023-04-24T02:29:52;96509.84;;;9.11;100.00
55289;BME280;41154;45.394;5.734;2023-04-24T02:32:18;96529.97;;;9.14;100.00
55289;BME280;41154;45.394;5.734;2023-04-24T02:34:44;96539.03;;;9.13;100.00
55289;BME280;41154;45.394;5.734;2023-04-24T02:37:11;96542.38;;;9.25;100.00
55289;BME280;41154;45.394;5.734;2023-04-24T02:39:37;96543.50;;;9.29;100.00
55289;BME280;41154;45.394;5.734;2023-04-24T02:42:03;96535.72;;;9.28;100.00
55289;BME280;41154;45.394;5.734;2023-04-24T02:44:29;96544.41;;;9.40;100.00
55289;BME280;41154;45.394;5.734;2023-04-24T02:46:55;96529.66;;;9.70;100.00
55289;BME280;41154;45.394;5.734;2023-04-24T02:49:22;96529.63;;;9.65;100.00
55289;BME280;41154;45.394;5.734;2023-04-24T02:51:48;96535.59;;;9.45;100.00
55289;BME280;41154;45.394;5.734;2023-04-24T02:54:13;96538.19;;;9.34;100.00
55289;BME280;41154;45.394;5.734;2023-04-24T02:56:39;96546.03;;;9.41;100.00
55289;BME280;41154;45.394;5.734;2023-04-24T02:59:06;96540.84;;;9.34;100.00
55289;BME280;41154;45.394;5.734;2023-04-24T03:01:32;96541.81;;;9.23;100.00
55289;BME280;41154;45.394;5.734;2023-04-24T03:03:58;96543.72;;;9.23;100.00
55289;BME280;41154;45.394;5.734;2023-04-24T03:06:25;96547.22;;;9.28;100.00
55289;BME280;41154;45.394;5.734;2023-04-24T03:08:52;96548.72;;;9.19;100.00
55289;BME280;41154;45.394;5.734;2023-04-24T03:11:18;96541.97;;;9.11;100.00
55289;BME280;41154;45.394;5.734;2023-04-24T03:13:44;96536.31;;;9.08;100.00
55289;BME280;41154;45.394;5.734;2023-04-24T03:16:10;96558.00;;;9.11;100.00
55289;BME280;41154;45.394;5.734;2023-04-24T03:18:35;96545.47;;;9.12;100.00
55289;BME280;41154;45.394;5.734;2023-04-24T03:21:02;96537.34;;;9.29;100.00
55289;BME280;41154;45.394;5.734;2023-04-24T03:23:29;96538.25;;;9.40;100.00
55289;BME280;41154;45.394;5.734;2023-04-24T03:25:55;96535.16;;;9.58;100.00
55289;BME280;41154;45.394;5.734;2023-04-24T03:28:21;96530.94;;;9.62;100.00
55289;BME280;41154;45.394;5.734;2023-04-24T03:30:56;96532.56;;;9.36;100.00
55289;BME280;41154;45.394;5.734;2023-04-24T03:33:23;96526.28;;;9.20;100.00
55289;BME280;41154;45.394;5.734;2023-04-24T03:35:57;96519.81;;;9.16;100.00
55289;BME280;41154;45.394;5.734;2023-04-24T03:38:23;96516.53;;;9.09;100.00
55289;BME280;41154;45.394;5.734;2023-04-24T03:41:02;96522.97;;;9.13;100.00
55289;BME280;41154;45.394;5.734;2023-04-24T03:43:54;96528.84;;;9.10;100.00
55289;BME280;41154;45.394;5.734;2023-04-24T03:46:20;96526.91;;;9.05;100.00
55289;BME280;41154;45.394;5.734;2023-04-24T03:48:52;96533.13;;;9.11;100.00
55289;BME280;41154;45.394;5.734;2023-04-24T03:51:21;96520.88;;;9.15;100.00
55289;BME280;41154;45.394;5.734;2023-04-24T03:53:50;96533.88;;;9.06;100.00
55289;BME280;41154;45.394;5.734;2023-04-24T03:56:19;96522.38;;;9.06;100.00
55289;BME280;41154;45.394;5.734;2023-04-24T03:58:45;96518.63;;;9.07;100.00
55289;BME280;41154;45.394;5.734;2023-04-24T04:01:11;96524.25;;;9.05;100.00
55289;BME280;41154;45.394;5.734;2023-04-24T04:03:37;96518.59;;;9.02;100.00
55289;BME280;41154;45.394;5.734;2023-04-24T04:06:03;96519.75;;;9.11;100.00
55289;BME280;41154;45.394;5.734;2023-04-24T04:08:29;96508.56;;;9.14;100.00
55289;BME280;41154;45.394;5.734;2023-04-24T04:10:57;96517.22;;;8.99;100.00
55289;BME280;41154;45.394;5.734;2023-04-24T04:13:23;96506.03;;;9.29;100.00
55289;BME280;41154;45.394;5.734;2023-04-24T04:15:48;96514.16;;;9.12;100.00
55289;BME280;41154;45.394;5.734;2023-04-24T04:18:14;96511.84;;;9.21;100.00
55289;BME280;41154;45.394;5.734;2023-04-24T04:20:41;96512.84;;;9.15;100.00
55289;BME280;41154;45.394;5.734;2023-04-24T04:23:08;96515.53;;;9.15;100.00
55289;BME280;41154;45.394;5.734;2023-04-24T04:26:03;96517.34;;;9.37;100.00
55289;BME280;41154;45.394;5.734;2023-04-24T04:28:42;96525.09;;;9.11;100.00
55289;BME280;41154;45.394;5.734;2023-04-24T04:31:11;96541.28;;;8.99;100.00
55289;BME280;41154;45.394;5.734;2023-04-24T04:33:37;96558.13;;;8.94;100.00
55289;BME280;41154;45.394;5.734;2023-04-24T04:36:06;96555.06;;;8.86;100.00
55289;BME280;41154;45.394;5.734;2023-04-24T04:38:35;96553.19;;;8.86;100.00
55289;BME280;41154;45.394;5.734;2023-04-24T04:41:13;96568.28;;;8.97;100.00
55289;BME280;41154;45.394;5.734;2023-04-24T04:43:39;96560.09;;;9.31;100.00
55289;BME280;41154;45.394;5.734;2023-04-24T04:46:09;96556.00;;;9.24;100.00
55289;BME280;41154;45.394;5.734;2023-04-24T04:48:55;96552.88;;;9.05;100.00
55289;BME280;41154;45.394;5.734;2023-04-24T04:51:22;96550.47;;;9.30;100.00
55289;BME280;41154;45.394;5.734;2023-04-24T04:53:49;96554.50;;;9.33;100.00
55289;BME280;41154;45.394;5.734;2023-04-24T04:56:15;96557.09;;;9.23;100.00
55289;BME280;41154;45.394;5.734;2023-04-24T04:58:44;96568.59;;;9.23;100.00
55289;BME280;41154;45.394;5.734;2023-04-24T05:01:13;96575.75;;;9.17;100.00
55289;BME280;41154;45.394;5.734;2023-04-24T05:03:41;96571.50;;;8.94;100.00
55289;BME280;41154;45.394;5.734;2023-04-24T05:06:10;96585.88;;;8.88;100.00
55289;BME280;41154;45.394;5.734;2023-04-24T05:08:38;96596.63;;;8.93;100.00
55289;BME280;41154;45.394;5.734;2023-04-24T05:11:07;96603.06;;;8.97;100.00
55289;BME280;41154;45.394;5.734;2023-04-24T05:13:33;96604.25;;;9.29;100.00
55289;BME280;41154;45.394;5.734;2023-04-24T05:16:01;96620.59;;;9.32;100.00
55289;BME280;41154;45.394;5.734;2023-04-24T05:18:28;96621.72;;;9.37;100.00
55289;BME280;41154;45.394;5.734;2023-04-24T05:20:54;96621.88;;;9.52;100.00
55289;BME280;41154;45.394;5.734;2023-04-24T05:23:21;96636.88;;;9.53;100.00
55289;BME280;41154;45.394;5.734;2023-04-24T05:25:50;96636.34;;;9.51;100.00
55289;BME280;41154;45.394;5.734;2023-04-24T05:28:16;96639.75;;;9.46;100.00
55289;BME280;41154;45.394;5.734;2023-04-24T05:30:46;96638.50;;;9.54;100.00
55289;BME280;41154;45.394;5.734;2023-04-24T05:33:14;96643.56;;;9.28;100.00
55289;BME280;41154;45.394;5.734;2023-04-24T05:35:40;96642.34;;;9.14;100.00
55289;BME280;41154;45.394;5.734;2023-04-24T05:38:12;96635.34;;;9.13;100.00
55289;BME280;41154;45.394;5.734;2023-04-24T05:40:39;96642.88;;;9.16;100.00
55289;BME280;41154;45.394;5.734;2023-04-24T05:43:04;96641.34;;;9.20;100.00
55289;BME280;41154;45.394;5.734;2023-04-24T05:45:30;96653.78;;;9.31;100.00
55289;BME280;41154;45.394;5.734;2023-04-24T05:47:57;96658.97;;;9.38;100.00
55289;BME280;41154;45.394;5.734;2023-04-24T05:50:23;96663.97;;;9.34;100.00
55289;BME280;41154;45.394;5.734;2023-04-24T05:52:48;96668.53;;;9.34;100.00
55289;BME280;41154;45.394;5.734;2023-04-24T05:55:24;96674.69;;;9.34;100.00
55289;BME280;41154;45.394;5.734;2023-04-24T05:57:51;96673.69;;;9.41;100.00
55289;BME280;41154;45.394;5.734;2023-04-24T06:00:17;96679.03;;;9.41;100.00
55289;BME280;41154;45.394;5.734;2023-04-24T06:02:52;96682.41;;;9.31;100.00
55289;BME280;41154;45.394;5.734;2023-04-24T06:05:20;96687.56;;;9.38;100.00
55289;BME280;41154;45.394;5.734;2023-04-24T06:07:45;96692.69;;;9.39;100.00
55289;BME280;41154;45.394;5.734;2023-04-24T06:10:11;96702.59;;;9.39;100.00
55289;BME280;41154;45.394;5.734;2023-04-24T06:12:40;96701.09;;;9.48;100.00
55289;BME280;41154;45.394;5.734;2023-04-24T06:15:12;96711.31;;;9.51;100.00
55289;BME280;41154;45.394;5.734;2023-04-24T06:18:13;96711.00;;;9.47;100.00
55289;BME280;41154;45.394;5.734;2023-04-24T06:20:41;96715.41;;;9.86;100.00
55289;BME280;41154;45.394;5.734;2023-04-24T06:23:09;96723.38;;;9.76;100.00
55289;BME280;41154;45.394;5.734;2023-04-24T06:25:35;96723.81;;;9.95;100.00
55289;BME280;41154;45.394;5.734;2023-04-24T06:28:01;96733.53;;;10.01;100.00
55289;BME280;41154;45.394;5.734;2023-04-24T06:30:29;96734.84;;;9.98;100.00
55289;BME280;41154;45.394;5.734;2023-04-24T06:32:55;96731.19;;;9.82;100.00
55289;BME280;41154;45.394;5.734;2023-04-24T06:35:21;96741.94;;;9.87;100.00
55289;BME280;41154;45.394;5.734;2023-04-24T06:37:46;96742.47;;;9.84;100.00
55289;BME280;41154;45.394;5.734;2023-04-24T06:40:12;96749.81;;;9.72;100.00
55289;BME280;41154;45.394;5.734;2023-04-24T06:42:38;96744.66;;;9.65;100.00
55289;BME280;41154;45.394;5.734;2023-04-24T06:45:07;96750.41;;;9.74;100.00
55289;BME280;41154;45.394;5.734;2023-04-24T06:47:33;96761.63;;;9.71;100.00
55289;BME280;41154;45.394;5.734;2023-04-24T06:49:58;96765.38;;;9.75;100.00
55289;BME280;41154;45.394;5.734;2023-04-24T06:52:24;96769.44;;;9.78;100.00
55289;BME280;41154;45.394;5.734;2023-04-24T06:54:50;96771.94;;;9.84;100.00
55289;BME280;41154;45.394;5.734;2023-04-24T06:57:17;96777.44;;;9.73;100.00
55289;BME280;41154;45.394;5.734;2023-04-24T06:59:42;96782.09;;;9.60;100.00
55289;BME280;41154;45.394;5.734;2023-04-24T07:02:08;96783.78;;;9.66;100.00
55289;BME280;41154;45.394;5.734;2023-04-24T07:04:34;96802.34;;;9.51;100.00
55289;BME280;41154;45.394;5.734;2023-04-24T07:07:00;96799.47;;;9.58;100.00
55289;BME280;41154;45.394;5.734;2023-04-24T07:09:26;96802.59;;;9.71;100.00
55289;BME280;41154;45.394;5.734;2023-04-24T07:11:52;96797.47;;;9.48;100.00
55289;BME280;41154;45.394;5.734;2023-04-24T07:14:19;96798.28;;;9.48;100.00
55289;BME280;41154;45.394;5.734;2023-04-24T07:16:46;96805.06;;;9.56;100.00
55289;BME280;41154;45.394;5.734;2023-04-24T07:19:13;96807.44;;;9.52;100.00
55289;BME280;41154;45.394;5.734;2023-04-24T07:21:39;96808.63;;;9.84;100.00
55289;BME280;41154;45.394;5.734;2023-04-24T07:24:05;96801.16;;;9.86;100.00
55289;BME280;41154;45.394;5.734;2023-04-24T07:26:31;96811.94;;;9.91;100.00
55289;BME280;41154;45.394;5.734;2023-04-24T07:28:57;96820.03;;;9.96;100.00
55289;BME280;41154;45.394;5.734;2023-04-24T07:31:22;96820.00;;;10.18;100.00
55289;BME280;41154;45.394;5.734;2023-04-24T07:33:48;96820.03;;;9.96;100.00
55289;BME280;41154;45.394;5.734;2023-04-24T07:36:14;96818.94;;;10.19;100.00
55289;BME280;41154;45.394;5.734;2023-04-24T07:38:47;96818.72;;;9.99;100.00
55289;BME280;41154;45.394;5.734;2023-04-24T07:41:13;96826.84;;;9.82;100.00
55289;BME280;41154;45.394;5.734;2023-04-24T07:43:39;96832.00;;;9.88;100.00
55289;BME280;41154;45.394;5.734;2023-04-24T07:46:06;96833.69;;;9.95;100.00
55289;BME280;41154;45.394;5.734;2023-04-24T07:48:32;96827.63;;;9.82;100.00
55289;BME280;41154;45.394;5.734;2023-04-24T07:50:57;96830.41;;;9.70;100.00
55289;BME280;41154;45.394;5.734;2023-04-24T07:53:23;96833.09;;;9.70;100.00
55289;BME280;41154;45.394;5.734;2023-04-24T07:55:49;96834.28;;;9.80;100.00
55289;BME280;41154;45.394;5.734;2023-04-24T07:58:15;96836.59;;;9.93;100.00
55289;BME280;41154;45.394;5.734;2023-04-24T08:00:41;96839.47;;;10.08;100.00
55289;BME280;41154;45.394;5.734;2023-04-24T08:03:07;96841.00;;;10.26;100.00
55289;BME280;41154;45.394;5.734;2023-04-24T08:05:32;96843.94;;;10.47;100.00
55289;BME280;41154;45.394;5.734;2023-04-24T08:07:58;96847.91;;;10.72;100.00
55289;BME280;41154;45.394;5.734;2023-04-24T08:10:25;96853.22;;;10.67;100.00
55289;BME280;41154;45.394;5.734;2023-04-24T08:12:51;96852.97;;;10.68;100.00
55289;BME280;41154;45.394;5.734;2023-04-24T08:15:17;96840.25;;;10.86;100.00
55289;BME280;41154;45.394;5.734;2023-04-24T08:17:43;96841.78;;;11.09;100.00
55289;BME280;41154;45.394;5.734;2023-04-24T08:20:09;96844.59;;;11.29;100.00
55289;BME280;41154;45.394;5.734;2023-04-24T08:22:42;96841.53;;;11.15;100.00
55289;BME280;41154;45.394;5.734;2023-04-24T08:25:09;96851.09;;;11.39;100.00
55289;BME280;41154;45.394;5.734;2023-04-24T08:27:35;96860.78;;;11.02;100.00
55289;BME280;41154;45.394;5.734;2023-04-24T08:30:03;96856.09;;;11.20;100.00
55289;BME280;41154;45.394;5.734;2023-04-24T08:32:29;96864.44;;;11.66;100.00
55289;BME280;41154;45.394;5.734;2023-04-24T08:34:58;96864.56;;;11.92;100.00
55289;BME280;41154;45.394;5.734;2023-04-24T08:37:25;96866.88;;;12.31;100.00
55289;BME280;41154;45.394;5.734;2023-04-24T08:39:52;96864.97;;;11.63;100.00
55289;BME280;41154;45.394;5.734;2023-04-24T08:42:19;96861.44;;;12.10;100.00
55289;BME280;41154;45.394;5.734;2023-04-24T08:44:45;96864.25;;;12.46;100.00
55289;BME280;41154;45.394;5.734;2023-04-24T08:47:11;96875.06;;;12.67;100.00
55289;BME280;41154;45.394;5.734;2023-04-24T08:49:38;96877.19;;;12.54;100.00
55289;BME280;41154;45.394;5.734;2023-04-24T08:52:07;96871.34;;;13.09;100.00
55289;BME280;41154;45.394;5.734;2023-04-24T08:54:36;96866.22;;;13.38;100.00
55289;BME280;41154;45.394;5.734;2023-04-24T08:57:03;96867.56;;;13.66;100.00
55289;BME280;41154;45.394;5.734;2023-04-24T08:59:30;96863.47;;;13.79;100.00
55289;BME280;41154;45.394;5.734;2023-04-24T09:01:56;96859.47;;;13.66;100.00
55289;BME280;41154;45.394;5.734;2023-04-24T09:04:23;96871.06;;;13.57;100.00
55289;BME280;41154;45.394;5.734;2023-04-24T09:06:56;96863.97;;;13.92;100.00
55289;BME280;41154;45.394;5.734;2023-04-24T09:09:25;96860.56;;;13.14;100.00
55289;BME280;41154;45.394;5.734;2023-04-24T09:11:52;96869.44;;;12.73;100.00
55289;BME280;41154;45.394;5.734;2023-04-24T09:14:21;96861.09;;;12.95;100.00
55289;BME280;41154;45.394;5.734;2023-04-24T09:16:48;96860.56;;;12.99;100.00
55289;BME280;41154;45.394;5.734;2023-04-24T09:19:14;96856.31;;;14.74;100.00
55289;BME280;41154;45.394;5.734;2023-04-24T09:21:39;96855.53;;;15.03;100.00
55289;BME280;41154;45.394;5.734;2023-04-24T09:24:16;96863.53;;;14.34;100.00
55289;BME280;41154;45.394;5.734;2023-04-24T09:26:49;96861.25;;;14.52;100.00
55289;BME280;41154;45.394;5.734;2023-04-24T09:29:20;96855.66;;;15.52;100.00
55289;BME280;41154;45.394;5.734;2023-04-24T09:31:46;96858.00;;;14.00;100.00
55289;BME280;41154;45.394;5.734;2023-04-24T09:34:12;96862.25;;;14.71;100.00
55289;BME280;41154;45.394;5.734;2023-04-24T09:36:42;96852.72;;;14.84;100.00
55289;BME280;41154;45.394;5.734;2023-04-24T09:39:12;96850.81;;;13.70;100.00
55289;BME280;41154;45.394;5.734;2023-04-24T09:41:51;96851.09;;;13.68;100.00
55289;BME280;41154;45.394;5.734;2023-04-24T09:44:19;96846.19;;;15.25;100.00
55289;BME280;41154;45.394;5.734;2023-04-24T09:46:54;96847.59;;;14.33;100.00
55289;BME280;41154;45.394;5.734;2023-04-24T09:49:28;96840.13;;;14.19;100.00
55289;BME280;41154;45.394;5.734;2023-04-24T09:52:09;96834.50;;;14.11;100.00
55289;BME280;41154;45.394;5.734;2023-04-24T09:54:36;96832.38;;;13.97;100.00
55289;BME280;41154;45.394;5.734;2023-04-24T09:57:02;96833.13;;;14.18;100.00
55289;BME280;41154;45.394;5.734;2023-04-24T09:59:29;96829.50;;;13.78;100.00
55289;BME280;41154;45.394;5.734;2023-04-24T10:01:55;96835.44;;;14.41;100.00
55289;BME280;41154;45.394;5.734;2023-04-24T10:04:23;96836.28;;;13.55;100.00
55289;BME280;41154;45.394;5.734;2023-04-24T10:06:51;96836.00;;;14.32;100.00
55289;BME280;41154;45.394;5.734;2023-04-24T10:09:19;96829.66;;;14.97;100.00
55289;BME280;41154;45.394;5.734;2023-04-24T10:11:47;96831.25;;;15.62;93.53
55289;BME280;41154;45.394;5.734;2023-04-24T10:14:15;96829.03;;;15.64;92.29
55289;BME280;41154;45.394;5.734;2023-04-24T10:16:42;96817.81;;;16.05;97.45
55289;BME280;41154;45.394;5.734;2023-04-24T10:19:08;96819.34;;;16.11;94.43
55289;BME280;41154;45.394;5.734;2023-04-24T10:21:35;96827.91;;;15.46;93.08
55289;BME280;41154;45.394;5.734;2023-04-24T10:24:03;96820.34;;;15.14;100.00
55289;BME280;41154;45.394;5.734;2023-04-24T10:26:31;96813.16;;;16.30;91.25
55289;BME280;41154;45.394;5.734;2023-04-24T10:28:58;96810.28;;;16.40;83.16
55289;BME280;41154;45.394;5.734;2023-04-24T10:31:25;96802.72;;;15.99;84.07
55289;BME280;41154;45.394;5.734;2023-04-24T10:33:52;96796.47;;;16.23;100.00
55289;BME280;41154;45.394;5.734;2023-04-24T10:36:22;96795.88;;;16.26;86.93
55289;BME280;41154;45.394;5.734;2023-04-24T10:38:49;96804.31;;;15.76;83.64
55289;BME280;41154;45.394;5.734;2023-04-24T10:41:18;96801.00;;;16.46;77.37
55289;BME280;41154;45.394;5.734;2023-04-24T10:46:32;96798.88;;;15.57;77.17
55289;BME280;41154;45.394;5.734;2023-04-24T10:48:58;96787.56;;;16.41;79.58
55289;BME280;41154;45.394;5.734;2023-04-24T10:51:26;96790.94;;;16.85;80.55
55289;BME280;41154;45.394;5.734;2023-04-24T10:54:33;96788.63;;;16.78;78.17
55289;BME280;41154;45.394;5.734;2023-04-24T10:59:44;96781.94;;;15.70;88.95
55289;BME280;41154;45.394;5.734;2023-04-24T11:02:10;96786.56;;;14.82;82.04
55289;BME280;41154;45.394;5.734;2023-04-24T11:04:35;96783.00;;;14.91;84.36
55289;BME280;41154;45.394;5.734;2023-04-24T11:07:04;96783.47;;;15.28;80.86
55289;BME280;41154;45.394;5.734;2023-04-24T11:09:31;96774.16;;;15.39;83.89
55289;BME280;41154;45.394;5.734;2023-04-24T11:12:06;96776.56;;;14.48;85.61
55289;BME280;41154;45.394;5.734;2023-04-24T11:17:37;96762.75;;;15.48;81.17
55289;BME280;41154;45.394;5.734;2023-04-24T11:20:07;96761.13;;;15.95;89.92
55289;BME280;41154;45.394;5.734;2023-04-24T11:22:36;96762.03;;;15.61;88.54
55289;BME280;41154;45.394;5.734;2023-04-24T11:25:03;96776.69;;;15.01;85.65
55289;BME280;41154;45.394;5.734;2023-04-24T11:27:38;96764.66;;;14.88;88.36
55289;BME280;41154;45.394;5.734;2023-04-24T11:30:04;96772.84;;;14.78;86.56
55289;BME280;41154;45.394;5.734;2023-04-24T11:37:38;96754.75;;;15.08;92.38
55289;BME280;41154;45.394;5.734;2023-04-24T11:40:06;96756.75;;;14.23;89.36
55289;BME280;41154;45.394;5.734;2023-04-24T11:42:39;96747.72;;;14.38;90.16
55289;BME280;41154;45.394;5.734;2023-04-24T11:45:08;96748.53;;;14.78;93.87
55289;BME280;41154;45.394;5.734;2023-04-24T11:47:35;96746.19;;;15.01;92.82
55289;BME280;41154;45.394;5.734;2023-04-24T11:50:02;96743.25;;;14.97;86.51
55289;BME280;41154;45.394;5.734;2023-04-24T11:52:29;96743.34;;;14.87;84.26
55289;BME280;41154;45.394;5.734;2023-04-24T11:54:55;96730.63;;;15.17;83.02
55289;BME280;41154;45.394;5.734;2023-04-24T11:57:25;96734.16;;;15.41;82.00
55289;BME280;41154;45.394;5.734;2023-04-24T12:00:02;96740.25;;;15.95;81.01
55289;BME280;41154;45.394;5.734;2023-04-24T12:02:37;96736.16;;;15.55;80.51
55289;BME280;41154;45.394;5.734;2023-04-24T12:05:04;96732.63;;;15.30;78.20
55289;BME280;41154;45.394;5.734;2023-04-24T12:07:40;96730.91;;;15.15;75.86
55289;BME280;41154;45.394;5.734;2023-04-24T12:10:11;96728.59;;;15.03;75.71
55289;BME280;41154;45.394;5.734;2023-04-24T12:12:36;96731.50;;;15.12;77.46
55289;BME280;41154;45.394;5.734;2023-04-24T12:15:07;96727.06;;;14.68;81.68
55289;BME280;41154;45.394;5.734;2023-04-24T12:17:35;96725.19;;;14.63;78.00
55289;BME280;41154;45.394;5.734;2023-04-24T12:20:07;96727.84;;;14.68;84.06
55289;BME280;41154;45.394;5.734;2023-04-24T12:22:52;96725.22;;;15.17;81.71
55289;BME280;41154;45.394;5.734;2023-04-24T12:25:26;96723.91;;;15.38;83.58
55289;BME280;41154;45.394;5.734;2023-04-24T12:30:35;96723.94;;;15.33;77.03
55289;BME280;41154;45.394;5.734;2023-04-24T12:33:02;96727.88;;;15.46;80.18
55289;BME280;41154;45.394;5.734;2023-04-24T12:35:30;96723.72;;;15.30;77.32
55289;BME280;41154;45.394;5.734;2023-04-24T12:38:11;96731.44;;;14.88;73.70
55289;BME280;41154;45.394;5.734;2023-04-24T12:40:38;96728.78;;;15.60;84.82
55289;BME280;41154;45.394;5.734;2023-04-24T12:43:24;96726.59;;;15.62;79.49
55289;BME280;41154;45.394;5.734;2023-04-24T12:45:49;96724.03;;;15.28;78.47
55289;BME280;41154;45.394;5.734;2023-04-24T12:48:15;96720.38;;;15.38;78.69
55289;BME280;41154;45.394;5.734;2023-04-24T12:50:43;96723.16;;;15.81;81.12
55289;BME280;41154;45.394;5.734;2023-04-24T12:53:09;96728.84;;;15.31;76.02
55289;BME280;41154;45.394;5.734;2023-04-24T12:55:36;96724.44;;;15.16;77.60
55289;BME280;41154;45.394;5.734;2023-04-24T12:58:02;96714.00;;;15.53;75.77
55289;BME280;41154;45.394;5.734;2023-04-24T13:00:28;96719.03;;;15.40;79.08
55289;BME280;41154;45.394;5.734;2023-04-24T13:02:55;96722.59;;;15.36;78.88
55289;BME280;41154;45.394;5.734;2023-04-24T13:05:20;96712.78;;;15.21;75.77
55289;BME280;41154;45.394;5.734;2023-04-24T13:07:46;96719.09;;;15.35;75.63
55289;BME280;41154;45.394;5.734;2023-04-24T13:10:12;96720.56;;;15.46;74.38
55289;BME280;41154;45.394;5.734;2023-04-24T13:12:39;96709.00;;;16.08;73.20
55289;BME280;41154;45.394;5.734;2023-04-24T13:15:06;96704.44;;;15.85;75.36
55289;BME280;41154;45.394;5.734;2023-04-24T13:17:32;96704.09;;;16.10;75.05